sensor_id;sensor_type;location;lat;lon;timestamp;P1;durP1;ratioP1;P2;durP2;ratioP2
18973;SDS011;9621;48.690;9.466;2023-04-30T00:02:20;6.28;;;4.60;;
18973;SDS011;9621;48.690;9.466;2023-04-30T00:04:47;5.72;;;4.80;;
18973;SDS011;9621;48.690;9.466;2023-04-30T00:07:15;9.43;;;4.70;;
18973;SDS011;9621;48.690;9.466;2023-04-30T00:09:41;4.93;;;4.43;;
18973;SDS011;9621;48.690;9.466;2023-04-30T00:12:08;5.47;;;4.35;;
18973;SDS011;9621;48.690;9.466;2023-04-30T00:14:35;7.32;;;4.57;;
18973;SDS011;9621;48.690;9.466;2023-04-30T00:17:02;6.82;;;4.70;;
18973;SDS011;9621;48.690;9.466;2023-04-30T00:19:29;6.72;;;4.72;;
18973;SDS011;9621;48.690;9.466;2023-04-30T00:21:56;5.63;;;4.63;;
18973;SDS011;9621;48.690;9.466;2023-04-30T00:24:27;6.47;;;4.47;;
18973;SDS011;9621;48.690;9.466;2023-04-30T00:26:54;6.93;;;4.53;;
18973;SDS011;9621;48.690;9.466;2023-04-30T00:29:21;7.00;;;4.95;;
18973;SDS011;9621;48.690;9.466;2023-04-30T00:31:48;7.43;;;4.43;;
18973;SDS011;9621;48.690;9.466;2023-04-30T00:34:15;6.93;;;4.05;;
18973;SDS011;9621;48.690;9.466;2023-04-30T00:36:42;6.13;;;4.68;;
18973;SDS011;9621;48.690;9.466;2023-04-30T00:39:09;7.15;;;4.68;;
18973;SDS011;9621;48.690;9.466;2023-04-30T00:41:37;5.88;;;4.40;;
18973;SDS011;9621;48.690;9.466;2023-04-30T00:44:04;6.55;;;5.18;;
18973;SDS011;9621;48.690;9.466;2023-04-30T00:46:31;8.48;;;4.55;;
18973;SDS011;9621;48.690;9.466;2023-04-30T00:48:58;6.57;;;4.65;;
18973;SDS011;9621;48.690;9.466;2023-04-30T00:51:28;6.60;;;4.95;;
18973;SDS011;9621;48.690;9.466;2023-04-30T00:53:56;5.93;;;4.85;;
18973;SDS011;9621;48.690;9.466;2023-04-30T00:56:26;7.28;;;4.93;;
18973;SDS011;9621;48.690;9.466;2023-04-30T00:58:54;6.22;;;4.75;;
18973;SDS011;9621;48.690;9.466;2023-04-30T01:01:22;7.20;;;5.13;;
18973;SDS011;9621;48.690;9.466;2023-04-30T01:03:49;7.32;;;4.93;;
18973;SDS011;9621;48.690;9.466;2023-04-30T01:06:17;8.38;;;5.32;;
18973;SDS011;9621;48.690;9.466;2023-04-30T01:08:43;6.53;;;5.05;;
18973;SDS011;9621;48.690;9.466;2023-04-30T01:11:15;8.75;;;5.72;;
18973;SDS011;9621;48.690;9.466;2023-04-30T01:13:49;6.90;;;5.55;;
18973;SDS011;9621;48.690;9.466;2023-04-30T01:16:24;7.68;;;5.50;;
18973;SDS011;9621;48.690;9.466;2023-04-30T01:18:53;7.78;;;5.35;;
18973;SDS011;9621;48.690;9.466;2023-04-30T01:21:24;7.43;;;5.78;;
18973;SDS011;9621;48.690;9.466;2023-04-30T01:24:05;11.63;;;6.78;;
18973;SDS011;9621;48.690;9.466;2023-04-30T01:26:52;6.85;;;5.10;;
18973;SDS011;9621;48.690;9.466;2023-04-30T01:29:31;8.95;;;5.70;;
18973;SDS011;9621;48.690;9.466;2023-04-30T01:31:59;11.23;;;5.95;;
18973;SDS011;9621;48.690;9.466;2023-04-30T01:34:27;8.88;;;6.32;;
18973;SDS011;9621;48.690;9.466;2023-04-30T01:36:58;8.52;;;5.95;;
18973;SDS011;9621;48.690;9.466;2023-04-30T01:39:39;10.45;;;6.53;;
18973;SDS011;9621;48.690;9.466;2023-04-30T01:42:18;9.80;;;6.00;;
18973;SDS011;9621;48.690;9.466;2023-04-30T01:48:05;10.95;;;6.13;;
18973;SDS011;9621;48.690;9.466;2023-04-30T01:50:52;6.53;;;5.38;;
18973;SDS011;9621;48.690;9.466;2023-04-30T01:53:27;7.25;;;5.57;;
18973;SDS011;9621;48.690;9.466;2023-04-30T01:55:58;9.68;;;6.38;;
18973;SDS011;9621;48.690;9.466;2023-04-30T01:58:30;9.48;;;5.43;;
18973;SDS011;9621;48.690;9.466;2023-04-30T02:00:57;7.43;;;5.70;;
18973;SDS011;9621;48.690;9.466;2023-04-30T02:03:26;10.57;;;5.75;;
18973;SDS011;9621;48.690;9.466;2023-04-30T02:05:53;10.15;;;5.38;;
18973;SDS011;9621;48.690;9.466;2023-04-30T02:08:20;7.32;;;5.72;;
18973;SDS011;9621;48.690;9.466;2023-04-30T02:10:47;8.70;;;6.15;;
18973;SDS011;9621;48.690;9.466;2023-04-30T02:13:14;9.20;;;5.65;;
18973;SDS011;9621;48.690;9.466;2023-04-30T02:15:41;9.90;;;6.22;;
18973;SDS011;9621;48.690;9.466;2023-04-30T02:18:08;7.57;;;5.72;;
18973;SDS011;9621;48.690;9.466;2023-04-30T02:20:36;7.30;;;5.65;;
18973;SDS011;9621;48.690;9.466;2023-04-30T02:23:03;8.32;;;5.97;;
18973;SDS011;9621;48.690;9.466;2023-04-30T02:25:30;8.27;;;6.05;;
18973;SDS011;9621;48.690;9.466;2023-04-30T02:28:01;8.68;;;6.07;;
18973;SDS011;9621;48.690;9.466;2023-04-30T02:30:29;8.48;;;6.05;;
18973;SDS011;9621;48.690;9.466;2023-04-30T02:32:55;9.23;;;6.95;;
18973;SDS011;9621;48.690;9.466;2023-04-30T02:35:22;10.48;;;7.07;;
18973;SDS011;9621;48.690;9.466;2023-04-30T02:37:51;11.38;;;7.13;;
18973;SDS011;9621;48.690;9.466;2023-04-30T02:40:17;8.65;;;6.43;;
18973;SDS011;9621;48.690;9.466;2023-04-30T02:42:44;9.73;;;6.60;;
18973;SDS011;9621;48.690;9.466;2023-04-30T02:45:12;11.02;;;7.25;;
18973;SDS011;9621;48.690;9.466;2023-04-30T02:47:39;12.13;;;8.23;;
18973;SDS011;9621;48.690;9.466;2023-04-30T02:50:06;11.40;;;7.53;;
18973;SDS011;9621;48.690;9.466;2023-04-30T02:52:33;12.48;;;8.48;;
18973;SDS011;9621;48.690;9.466;2023-04-30T02:55:02;11.48;;;7.88;;
18973;SDS011;9621;48.690;9.466;2023-04-30T02:57:29;12.93;;;7.88;;
18973;SDS011;9621;48.690;9.466;2023-04-30T02:59:56;11.80;;;8.00;;
18973;SDS011;9621;48.690;9.466;2023-04-30T03:02:23;11.32;;;8.10;;
18973;SDS011;9621;48.690;9.466;2023-04-30T03:04:50;10.60;;;8.07;;
18973;SDS011;9621;48.690;9.466;2023-04-30T03:07:17;9.98;;;7.85;;
18973;SDS011;9621;48.690;9.466;2023-04-30T03:09:44;15.63;;;8.27;;
18973;SDS011;9621;48.690;9.466;2023-04-30T03:12:13;11.75;;;7.45;;
18973;SDS011;9621;48.690;9.466;2023-04-30T03:14:39;10.43;;;7.63;;
18973;SDS011;9621;48.690;9.466;2023-04-30T03:17:07;12.35;;;8.15;;
18973;SDS011;9621;48.690;9.466;2023-04-30T03:19:34;10.50;;;7.47;;
18973;SDS011;9621;48.690;9.466;2023-04-30T03:22:01;10.00;;;7.65;;
18973;SDS011;9621;48.690;9.466;2023-04-30T03:24:27;11.40;;;7.35;;
18973;SDS011;9621;48.690;9.466;2023-04-30T03:26:55;11.55;;;7.90;;
18973;SDS011;9621;48.690;9.466;2023-04-30T03:29:23;10.48;;;7.65;;
18973;SDS011;9621;48.690;9.466;2023-04-30T03:31:50;10.77;;;8.52;;
18973;SDS011;9621;48.690;9.466;2023-04-30T03:34:17;11.57;;;7.93;;
18973;SDS011;9621;48.690;9.466;2023-04-30T03:36:44;10.68;;;7.38;;
18973;SDS011;9621;48.690;9.466;2023-04-30T03:39:11;13.00;;;8.80;;
18973;SDS011;9621;48.690;9.466;2023-04-30T03:41:38;14.13;;;8.35;;
18973;SDS011;9621;48.690;9.466;2023-04-30T03:44:05;11.88;;;8.50;;
18973;SDS011;9621;48.690;9.466;2023-04-30T03:46:40;14.85;;;8.82;;
18973;SDS011;9621;48.690;9.466;2023-04-30T03:49:08;13.50;;;8.38;;
18973;SDS011;9621;48.690;9.466;2023-04-30T03:51:35;12.40;;;9.13;;
18973;SDS011;9621;48.690;9.466;2023-04-30T03:54:05;9.77;;;7.85;;
18973;SDS011;9621;48.690;9.466;2023-04-30T03:56:33;14.63;;;9.07;;
18973;SDS011;9621;48.690;9.466;2023-04-30T03:59:00;13.20;;;8.53;;
18973;SDS011;9621;48.690;9.466;2023-04-30T04:01:28;14.63;;;8.53;;
18973;SDS011;9621;48.690;9.466;2023-04-30T04:03:57;13.45;;;9.55;;
18973;SDS011;9621;48.690;9.466;2023-04-30T04:06:24;15.27;;;9.50;;
18973;SDS011;9621;48.690;9.466;2023-04-30T04:08:51;16.00;;;9.50;;
18973;SDS011;9621;48.690;9.466;2023-04-30T04:11:18;12.90;;;9.18;;
18973;SDS011;9621;48.690;9.466;2023-04-30T04:13:45;12.87;;;8.80;;
18973;SDS011;9621;48.690;9.466;2023-04-30T04:16:12;12.77;;;9.35;;
18973;SDS011;9621;48.690;9.466;2023-04-30T04:18:39;14.30;;;9.57;;
18973;SDS011;9621;48.690;9.466;2023-04-30T04:21:08;12.40;;;9.00;;
18973;SDS011;9621;48.690;9.466;2023-04-30T04:23:35;13.13;;;9.00;;
18973;SDS011;9621;48.690;9.466;2023-04-30T04:26:01;12.77;;;9.43;;
18973;SDS011;9621;48.690;9.466;2023-04-30T04:28:28;16.53;;;10.27;;
18973;SDS011;9621;48.690;9.466;2023-04-30T04:30:55;16.60;;;10.37;;
18973;SDS011;9621;48.690;9.466;2023-04-30T04:33:23;14.00;;;9.70;;
18973;SDS011;9621;48.690;9.466;2023-04-30T04:35:50;15.43;;;9.73;;
18973;SDS011;9621;48.690;9.466;2023-04-30T04:38:18;14.10;;;10.33;;
18973;SDS011;9621;48.690;9.466;2023-04-30T04:40:52;17.23;;;10.30;;
18973;SDS011;9621;48.690;9.466;2023-04-30T04:43:19;13.87;;;10.03;;
18973;SDS011;9621;48.690;9.466;2023-04-30T04:45:46;13.87;;;10.30;;
18973;SDS011;9621;48.690;9.466;2023-04-30T04:48:13;13.63;;;10.02;;
18973;SDS011;9621;48.690;9.466;2023-04-30T04:50:40;15.40;;;10.07;;
18973;SDS011;9621;48.690;9.466;2023-04-30T04:53:08;13.38;;;10.30;;
18973;SDS011;9621;48.690;9.466;2023-04-30T04:55:36;15.67;;;9.93;;
18973;SDS011;9621;48.690;9.466;2023-04-30T04:58:03;17.40;;;10.13;;
18973;SDS011;9621;48.690;9.466;2023-04-30T05:00:30;15.27;;;10.20;;
18973;SDS011;9621;48.690;9.466;2023-04-30T05:02:58;14.70;;;10.60;;
18973;SDS011;9621;48.690;9.466;2023-04-30T05:05:24;13.67;;;10.10;;
18973;SDS011;9621;48.690;9.466;2023-04-30T05:07:51;15.23;;;10.23;;
18973;SDS011;9621;48.690;9.466;2023-04-30T05:10:19;15.83;;;9.77;;
18973;SDS011;9621;48.690;9.466;2023-04-30T05:12:47;14.30;;;10.23;;
18973;SDS011;9621;48.690;9.466;2023-04-30T05:15:14;13.07;;;9.33;;
18973;SDS011;9621;48.690;9.466;2023-04-30T05:17:41;14.40;;;10.37;;
18973;SDS011;9621;48.690;9.466;2023-04-30T05:20:08;14.70;;;10.32;;
18973;SDS011;9621;48.690;9.466;2023-04-30T05:22:36;14.82;;;11.50;;
18973;SDS011;9621;48.690;9.466;2023-04-30T05:25:04;16.80;;;10.82;;
18973;SDS011;9621;48.690;9.466;2023-04-30T05:27:31;16.08;;;11.45;;
18973;SDS011;9621;48.690;9.466;2023-04-30T05:30:00;14.83;;;10.90;;
18973;SDS011;9621;48.690;9.466;2023-04-30T05:32:27;14.45;;;10.85;;
18973;SDS011;9621;48.690;9.466;2023-04-30T05:34:54;17.35;;;11.90;;
18973;SDS011;9621;48.690;9.466;2023-04-30T05:37:21;16.80;;;11.13;;
18973;SDS011;9621;48.690;9.466;2023-04-30T05:39:48;15.18;;;10.77;;
18973;SDS011;9621;48.690;9.466;2023-04-30T05:42:17;15.32;;;10.95;;
18973;SDS011;9621;48.690;9.466;2023-04-30T05:44:44;13.35;;;10.57;;
18973;SDS011;9621;48.690;9.466;2023-04-30T05:47:13;15.50;;;11.15;;
18973;SDS011;9621;48.690;9.466;2023-04-30T05:49:40;13.40;;;10.20;;
18973;SDS011;9621;48.690;9.466;2023-04-30T05:52:07;14.15;;;10.43;;
18973;SDS011;9621;48.690;9.466;2023-04-30T05:54:34;17.20;;;11.30;;
18973;SDS011;9621;48.690;9.466;2023-04-30T05:57:00;15.40;;;10.98;;
18973;SDS011;9621;48.690;9.466;2023-04-30T05:59:28;14.80;;;11.48;;
18973;SDS011;9621;48.690;9.466;2023-04-30T06:01:54;17.17;;;11.40;;
18973;SDS011;9621;48.690;9.466;2023-04-30T06:04:23;15.98;;;10.98;;
18973;SDS011;9621;48.690;9.466;2023-04-30T06:06:50;13.73;;;10.27;;
18973;SDS011;9621;48.690;9.466;2023-04-30T06:09:17;15.43;;;11.45;;
18973;SDS011;9621;48.690;9.466;2023-04-30T06:11:44;16.77;;;11.32;;
18973;SDS011;9621;48.690;9.466;2023-04-30T06:14:14;15.90;;;13.57;;
18973;SDS011;9621;48.690;9.466;2023-04-30T06:16:41;17.40;;;12.25;;
18973;SDS011;9621;48.690;9.466;2023-04-30T06:19:12;18.13;;;13.52;;
18973;SDS011;9621;48.690;9.466;2023-04-30T06:21:40;16.58;;;12.50;;
18973;SDS011;9621;48.690;9.466;2023-04-30T06:24:08;14.20;;;12.20;;
18973;SDS011;9621;48.690;9.466;2023-04-30T06:26:35;19.52;;;14.63;;
18973;SDS011;9621;48.690;9.466;2023-04-30T06:29:02;14.45;;;10.57;;
18973;SDS011;9621;48.690;9.466;2023-04-30T06:31:30;14.23;;;10.68;;
18973;SDS011;9621;48.690;9.466;2023-04-30T06:33:56;13.48;;;10.38;;
18973;SDS011;9621;48.690;9.466;2023-04-30T06:36:23;13.73;;;10.27;;
18973;SDS011;9621;48.690;9.466;2023-04-30T06:38:51;13.57;;;10.23;;
18973;SDS011;9621;48.690;9.466;2023-04-30T06:41:18;15.10;;;10.60;;
18973;SDS011;9621;48.690;9.466;2023-04-30T06:43:45;13.75;;;10.07;;
18973;SDS011;9621;48.690;9.466;2023-04-30T06:46:13;13.25;;;10.15;;
18973;SDS011;9621;48.690;9.466;2023-04-30T06:48:40;11.13;;;9.13;;
18973;SDS011;9621;48.690;9.466;2023-04-30T06:51:07;12.45;;;9.55;;
18973;SDS011;9621;48.690;9.466;2023-04-30T06:53:34;13.27;;;9.57;;
18973;SDS011;9621;48.690;9.466;2023-04-30T06:56:03;13.73;;;9.88;;
18973;SDS011;9621;48.690;9.466;2023-04-30T06:58:30;12.02;;;9.32;;
18973;SDS011;9621;48.690;9.466;2023-04-30T07:00:57;10.75;;;8.93;;
18973;SDS011;9621;48.690;9.466;2023-04-30T07:03:24;11.13;;;8.85;;
18973;SDS011;9621;48.690;9.466;2023-04-30T07:05:52;11.95;;;9.77;;
18973;SDS011;9621;48.690;9.466;2023-04-30T07:08:19;11.73;;;9.02;;
18973;SDS011;9621;48.690;9.466;2023-04-30T07:10:46;12.07;;;9.27;;
18973;SDS011;9621;48.690;9.466;2023-04-30T07:13:15;12.00;;;9.30;;
18973;SDS011;9621;48.690;9.466;2023-04-30T07:15:42;14.23;;;9.25;;
18973;SDS011;9621;48.690;9.466;2023-04-30T07:18:09;11.70;;;8.77;;
18973;SDS011;9621;48.690;9.466;2023-04-30T07:20:36;10.23;;;8.65;;
18973;SDS011;9621;48.690;9.466;2023-04-30T07:23:03;12.32;;;8.05;;
18973;SDS011;9621;48.690;9.466;2023-04-30T07:25:30;10.57;;;8.20;;
18973;SDS011;9621;48.690;9.466;2023-04-30T07:27:57;10.32;;;7.78;;
18973;SDS011;9621;48.690;9.466;2023-04-30T07:30:25;8.70;;;7.45;;
18973;SDS011;9621;48.690;9.466;2023-04-30T07:32:52;10.95;;;7.65;;
18973;SDS011;9621;48.690;9.466;2023-04-30T07:35:19;14.50;;;8.35;;
18973;SDS011;9621;48.690;9.466;2023-04-30T07:37:46;10.88;;;7.85;;
18973;SDS011;9621;48.690;9.466;2023-04-30T07:40:12;10.73;;;7.95;;
18973;SDS011;9621;48.690;9.466;2023-04-30T07:42:40;9.68;;;7.97;;
18973;SDS011;9621;48.690;9.466;2023-04-30T07:45:07;9.73;;;8.25;;
18973;SDS011;9621;48.690;9.466;2023-04-30T07:47:36;11.23;;;7.32;;
18973;SDS011;9621;48.690;9.466;2023-04-30T07:50:04;9.07;;;6.78;;
18973;SDS011;9621;48.690;9.466;2023-04-30T07:52:31;11.70;;;7.55;;
18973;SDS011;9621;48.690;9.466;2023-04-30T07:54:58;8.73;;;7.43;;
18973;SDS011;9621;48.690;9.466;2023-04-30T07:57:25;9.73;;;6.93;;
18973;SDS011;9621;48.690;9.466;2023-04-30T07:59:52;8.55;;;7.35;;
18973;SDS011;9621;48.690;9.466;2023-04-30T08:02:19;9.73;;;7.68;;
18973;SDS011;9621;48.690;9.466;2023-04-30T08:04:48;7.88;;;6.63;;
18973;SDS011;9621;48.690;9.466;2023-04-30T08:07:15;10.00;;;6.97;;
18973;SDS011;9621;48.690;9.466;2023-04-30T08:09:42;8.45;;;7.35;;
18973;SDS011;9621;48.690;9.466;2023-04-30T08:12:09;10.68;;;7.68;;
18973;SDS011;9621;48.690;9.466;2023-04-30T08:14:36;8.73;;;7.20;;
18973;SDS011;9621;48.690;9.466;2023-04-30T08:17:03;10.52;;;7.63;;
18973;SDS011;9621;48.690;9.466;2023-04-30T08:19:30;8.60;;;6.35;;
18973;SDS011;9621;48.690;9.466;2023-04-30T08:21:58;8.27;;;7.00;;
18973;SDS011;9621;48.690;9.466;2023-04-30T08:24:25;7.75;;;6.22;;
18973;SDS011;9621;48.690;9.466;2023-04-30T08:26:52;7.40;;;6.63;;
18973;SDS011;9621;48.690;9.466;2023-04-30T08:29:19;7.00;;;6.00;;
18973;SDS011;9621;48.690;9.466;2023-04-30T08:31:46;8.98;;;6.45;;
18973;SDS011;9621;48.690;9.466;2023-04-30T08:34:13;7.60;;;6.28;;
18973;SDS011;9621;48.690;9.466;2023-04-30T08:36:40;7.75;;;5.82;;
18973;SDS011;9621;48.690;9.466;2023-04-30T08:39:09;7.45;;;6.03;;
18973;SDS011;9621;48.690;9.466;2023-04-30T08:41:36;7.07;;;5.72;;
18973;SDS011;9621;48.690;9.466;2023-04-30T08:44:07;7.40;;;6.20;;
18973;SDS011;9621;48.690;9.466;2023-04-30T08:46:37;7.68;;;5.88;;
18973;SDS011;9621;48.690;9.466;2023-04-30T08:49:05;6.20;;;5.35;;
18973;SDS011;9621;48.690;9.466;2023-04-30T08:51:32;7.93;;;5.70;;
18973;SDS011;9621;48.690;9.466;2023-04-30T08:54:00;8.63;;;6.10;;
18973;SDS011;9621;48.690;9.466;2023-04-30T08:56:28;7.70;;;5.32;;
18973;SDS011;9621;48.690;9.466;2023-04-30T08:58:57;6.10;;;5.50;;
18973;SDS011;9621;48.690;9.466;2023-04-30T09:01:24;7.68;;;5.70;;
18973;SDS011;9621;48.690;9.466;2023-04-30T09:03:53;5.88;;;4.93;;
18973;SDS011;9621;48.690;9.466;2023-04-30T09:06:20;7.32;;;5.30;;
18973;SDS011;9621;48.690;9.466;2023-04-30T09:08:48;5.93;;;5.30;;
18973;SDS011;9621;48.690;9.466;2023-04-30T09:11:22;5.72;;;5.13;;
18973;SDS011;9621;48.690;9.466;2023-04-30T09:13:52;7.35;;;4.93;;
18973;SDS011;9621;48.690;9.466;2023-04-30T09:16:21;5.63;;;4.80;;
18973;SDS011;9621;48.690;9.466;2023-04-30T09:18:49;7.28;;;5.22;;
18973;SDS011;9621;48.690;9.466;2023-04-30T09:21:16;6.63;;;5.10;;
18973;SDS011;9621;48.690;9.466;2023-04-30T09:23:56;6.63;;;5.18;;
18973;SDS011;9621;48.690;9.466;2023-04-30T09:26:29;5.38;;;4.45;;
18973;SDS011;9621;48.690;9.466;2023-04-30T09:28:59;6.70;;;4.45;;
18973;SDS011;9621;48.690;9.466;2023-04-30T09:31:31;5.60;;;4.50;;
18973;SDS011;9621;48.690;9.466;2023-04-30T09:33:59;5.97;;;4.57;;
18973;SDS011;9621;48.690;9.466;2023-04-30T09:36:26;5.30;;;3.97;;
18973;SDS011;9621;48.690;9.466;2023-04-30T09:38:53;4.95;;;4.25;;
18973;SDS011;9621;48.690;9.466;2023-04-30T09:41:21;5.30;;;4.28;;
18973;SDS011;9621;48.690;9.466;2023-04-30T09:43:50;7.38;;;4.95;;
18973;SDS011;9621;48.690;9.466;2023-04-30T09:46:19;5.85;;;4.47;;
18973;SDS011;9621;48.690;9.466;2023-04-30T09:48:51;6.40;;;4.15;;
18973;SDS011;9621;48.690;9.466;2023-04-30T09:51:22;5.65;;;3.97;;
18973;SDS011;9621;48.690;9.466;2023-04-30T09:53:49;5.70;;;3.97;;
18973;SDS011;9621;48.690;9.466;2023-04-30T09:56:19;5.20;;;3.60;;
18973;SDS011;9621;48.690;9.466;2023-04-30T09:58:48;7.78;;;3.95;;
18973;SDS011;9621;48.690;9.466;2023-04-30T10:01:17;5.18;;;3.17;;
18973;SDS011;9621;48.690;9.466;2023-04-30T10:03:47;5.18;;;3.45;;
18973;SDS011;9621;48.690;9.466;2023-04-30T10:06:15;3.85;;;3.47;;
18973;SDS011;9621;48.690;9.466;2023-04-30T10:08:44;4.32;;;3.50;;
18973;SDS011;9621;48.690;9.466;2023-04-30T10:11:14;3.97;;;3.45;;
18973;SDS011;9621;48.690;9.466;2023-04-30T10:13:45;4.15;;;3.60;;
18973;SDS011;9621;48.690;9.466;2023-04-30T10:16:21;5.75;;;3.35;;
18973;SDS011;9621;48.690;9.466;2023-04-30T10:18:54;3.13;;;2.80;;
18973;SDS011;9621;48.690;9.466;2023-04-30T10:21:28;4.70;;;2.90;;
18973;SDS011;9621;48.690;9.466;2023-04-30T10:23:58;5.55;;;3.28;;
18973;SDS011;9621;48.690;9.466;2023-04-30T10:26:25;3.95;;;3.08;;
18973;SDS011;9621;48.690;9.466;2023-04-30T10:28:55;5.65;;;3.20;;
18973;SDS011;9621;48.690;9.466;2023-04-30T10:31:26;5.28;;;3.40;;
18973;SDS011;9621;48.690;9.466;2023-04-30T10:33:57;4.22;;;3.22;;
18973;SDS011;9621;48.690;9.466;2023-04-30T10:36:33;4.28;;;3.20;;
18973;SDS011;9621;48.690;9.466;2023-04-30T10:39:05;4.88;;;3.00;;
18973;SDS011;9621;48.690;9.466;2023-04-30T10:41:33;4.07;;;3.50;;
18973;SDS011;9621;48.690;9.466;2023-04-30T10:44:00;5.75;;;3.53;;
18973;SDS011;9621;48.690;9.466;2023-04-30T10:46:30;3.90;;;3.38;;
18973;SDS011;9621;48.690;9.466;2023-04-30T10:49:00;5.22;;;3.25;;
18973;SDS011;9621;48.690;9.466;2023-04-30T10:54:10;4.93;;;3.30;;
18973;SDS011;9621;48.690;9.466;2023-04-30T10:56:39;4.70;;;3.25;;
18973;SDS011;9621;48.690;9.466;2023-04-30T10:59:06;4.22;;;3.25;;
18973;SDS011;9621;48.690;9.466;2023-04-30T11:01:53;4.32;;;3.25;;
18973;SDS011;9621;48.690;9.466;2023-04-30T11:04:22;5.50;;;3.05;;
18973;SDS011;9621;48.690;9.466;2023-04-30T11:06:53;3.80;;;3.35;;
18973;SDS011;9621;48.690;9.466;2023-04-30T11:09:38;3.40;;;3.10;;
18973;SDS011;9621;48.690;9.466;2023-04-30T11:12:09;3.97;;;3.58;;
18973;SDS011;9621;48.690;9.466;2023-04-30T11:14:40;3.78;;;3.40;;
18973;SDS011;9621;48.690;9.466;2023-04-30T11:17:10;3.72;;;3.33;;
18973;SDS011;9621;48.690;9.466;2023-04-30T11:19:44;4.18;;;3.40;;
18973;SDS011;9621;48.690;9.466;2023-04-30T11:22:14;4.30;;;3.65;;
18973;SDS011;9621;48.690;9.466;2023-04-30T11:24:50;3.83;;;3.30;;
18973;SDS011;9621;48.690;9.466;2023-04-30T11:27:26;4.85;;;3.25;;
18973;SDS011;9621;48.690;9.466;2023-04-30T11:29:55;3.38;;;2.97;;
18973;SDS011;9621;48.690;9.466;2023-04-30T11:32:25;4.40;;;3.08;;
18973;SDS011;9621;48.690;9.466;2023-04-30T11:34:56;4.55;;;3.03;;
18973;SDS011;9621;48.690;9.466;2023-04-30T11:37:29;4.15;;;2.92;;
18973;SDS011;9621;48.690;9.466;2023-04-30T11:39:58;4.38;;;2.97;;
18973;SDS011;9621;48.690;9.466;2023-04-30T11:42:27;3.55;;;3.00;;
18973;SDS011;9621;48.690;9.466;2023-04-30T11:45:02;3.47;;;3.17;;
18973;SDS011;9621;48.690;9.466;2023-04-30T11:47:42;4.00;;;3.20;;
18973;SDS011;9621;48.690;9.466;2023-04-30T11:50:10;5.30;;;3.55;;
18973;SDS011;9621;48.690;9.466;2023-04-30T11:52:39;4.97;;;3.55;;
18973;SDS011;9621;48.690;9.466;2023-04-30T11:55:07;4.72;;;3.47;;
18973;SDS011;9621;48.690;9.466;2023-04-30T11:57:39;3.40;;;3.10;;
18973;SDS011;9621;48.690;9.466;2023-04-30T12:00:08;3.58;;;3.05;;
18973;SDS011;9621;48.690;9.466;2023-04-30T12:02:36;5.13;;;3.70;;
18973;SDS011;9621;48.690;9.466;2023-04-30T12:05:06;4.53;;;3.40;;
18973;SDS011;9621;48.690;9.466;2023-04-30T12:07:43;5.00;;;3.78;;
18973;SDS011;9621;48.690;9.466;2023-04-30T12:10:11;4.85;;;3.78;;
18973;SDS011;9621;48.690;9.466;2023-04-30T12:12:38;4.93;;;4.00;;
18973;SDS011;9621;48.690;9.466;2023-04-30T12:15:12;6.30;;;3.42;;
18973;SDS011;9621;48.690;9.466;2023-04-30T12:17:40;3.45;;;3.15;;
18973;SDS011;9621;48.690;9.466;2023-04-30T12:20:09;6.35;;;3.70;;
18973;SDS011;9621;48.690;9.466;2023-04-30T12:22:38;4.22;;;3.78;;
18973;SDS011;9621;48.690;9.466;2023-04-30T12:25:07;4.03;;;3.55;;
18973;SDS011;9621;48.690;9.466;2023-04-30T12:27:38;4.22;;;3.83;;
18973;SDS011;9621;48.690;9.466;2023-04-30T12:30:06;5.22;;;3.70;;
18973;SDS011;9621;48.690;9.466;2023-04-30T12:32:38;4.78;;;3.83;;
18973;SDS011;9621;48.690;9.466;2023-04-30T12:35:06;4.05;;;2.95;;
18973;SDS011;9621;48.690;9.466;2023-04-30T12:37:42;3.25;;;2.90;;
18973;SDS011;9621;48.690;9.466;2023-04-30T12:40:10;3.47;;;3.15;;
18973;SDS011;9621;48.690;9.466;2023-04-30T12:42:38;4.75;;;3.75;;
18973;SDS011;9621;48.690;9.466;2023-04-30T12:45:05;4.88;;;3.47;;
18973;SDS011;9621;48.690;9.466;2023-04-30T12:47:36;4.45;;;3.60;;
18973;SDS011;9621;48.690;9.466;2023-04-30T12:50:07;5.95;;;3.42;;
18973;SDS011;9621;48.690;9.466;2023-04-30T12:52:37;4.40;;;3.47;;
18973;SDS011;9621;48.690;9.466;2023-04-30T12:55:15;4.05;;;3.28;;
18973;SDS011;9621;48.690;9.466;2023-04-30T13:00:47;3.33;;;2.90;;
18973;SDS011;9621;48.690;9.466;2023-04-30T13:03:15;5.07;;;3.28;;
18973;SDS011;9621;48.690;9.466;2023-04-30T13:05:48;3.58;;;2.95;;
18973;SDS011;9621;48.690;9.466;2023-04-30T13:08:16;3.67;;;3.00;;
18973;SDS011;9621;48.690;9.466;2023-04-30T13:10:44;5.40;;;2.92;;
18973;SDS011;9621;48.690;9.466;2023-04-30T13:13:13;3.55;;;2.80;;
18973;SDS011;9621;48.690;9.466;2023-04-30T13:15:41;4.20;;;3.05;;
18973;SDS011;9621;48.690;9.466;2023-04-30T13:18:08;2.78;;;2.47;;
18973;SDS011;9621;48.690;9.466;2023-04-30T13:20:34;4.57;;;3.08;;
18973;SDS011;9621;48.690;9.466;2023-04-30T13:23:03;2.88;;;2.58;;
18973;SDS011;9621;48.690;9.466;2023-04-30T13:25:31;3.88;;;2.88;;
18973;SDS011;9621;48.690;9.466;2023-04-30T13:27:58;3.60;;;3.00;;
18973;SDS011;9621;48.690;9.466;2023-04-30T13:30:25;3.80;;;2.60;;
18973;SDS011;9621;48.690;9.466;2023-04-30T13:32:53;3.78;;;2.90;;
18973;SDS011;9621;48.690;9.466;2023-04-30T13:35:20;3.53;;;2.83;;
18973;SDS011;9621;48.690;9.466;2023-04-30T13:37:47;3.10;;;2.63;;
18973;SDS011;9621;48.690;9.466;2023-04-30T13:40:18;3.58;;;3.00;;
18973;SDS011;9621;48.690;9.466;2023-04-30T13:42:46;6.25;;;3.38;;
18973;SDS011;9621;48.690;9.466;2023-04-30T13:45:13;3.20;;;2.90;;
18973;SDS011;9621;48.690;9.466;2023-04-30T13:47:41;2.90;;;2.50;;
18973;SDS011;9621;48.690;9.466;2023-04-30T13:50:08;3.67;;;2.55;;
18973;SDS011;9621;48.690;9.466;2023-04-30T13:52:35;2.92;;;2.65;;
18973;SDS011;9621;48.690;9.466;2023-04-30T13:55:03;5.90;;;3.10;;
18973;SDS011;9621;48.690;9.466;2023-04-30T13:57:32;7.30;;;2.70;;
18973;SDS011;9621;48.690;9.466;2023-04-30T13:59:58;3.33;;;2.72;;
18973;SDS011;9621;48.690;9.466;2023-04-30T14:02:26;4.72;;;2.50;;
18973;SDS011;9621;48.690;9.466;2023-04-30T14:04:53;4.57;;;2.70;;
18973;SDS011;9621;48.690;9.466;2023-04-30T14:07:20;3.25;;;2.40;;
18973;SDS011;9621;48.690;9.466;2023-04-30T14:09:47;3.17;;;2.63;;
18973;SDS011;9621;48.690;9.466;2023-04-30T14:12:15;3.30;;;2.50;;
18973;SDS011;9621;48.690;9.466;2023-04-30T14:14:43;3.97;;;3.17;;
18973;SDS011;9621;48.690;9.466;2023-04-30T14:17:10;3.63;;;2.85;;
18973;SDS011;9621;48.690;9.466;2023-04-30T14:19:37;3.13;;;2.72;;
18973;SDS011;9621;48.690;9.466;2023-04-30T14:22:04;3.10;;;2.80;;
18973;SDS011;9621;48.690;9.466;2023-04-30T14:24:31;3.05;;;2.72;;
18973;SDS011;9621;48.690;9.466;2023-04-30T14:26:59;3.63;;;2.95;;
18973;SDS011;9621;48.690;9.466;2023-04-30T14:29:27;2.90;;;2.58;;
18973;SDS011;9621;48.690;9.466;2023-04-30T14:31:56;3.38;;;2.95;;
18973;SDS011;9621;48.690;9.466;2023-04-30T14:34:23;3.33;;;2.80;;
18973;SDS011;9621;48.690;9.466;2023-04-30T14:36:51;4.13;;;2.67;;
18973;SDS011;9621;48.690;9.466;2023-04-30T14:39:18;3.17;;;2.88;;
18973;SDS011;9621;48.690;9.466;2023-04-30T14:41:45;3.40;;;2.80;;
18973;SDS011;9621;48.690;9.466;2023-04-30T14:44:12;5.05;;;2.95;;
18973;SDS011;9621;48.690;9.466;2023-04-30T14:46:39;3.63;;;2.85;;
18973;SDS011;9621;48.690;9.466;2023-04-30T14:49:07;3.53;;;2.72;;
18973;SDS011;9621;48.690;9.466;2023-04-30T14:51:34;3.08;;;2.60;;
18973;SDS011;9621;48.690;9.466;2023-04-30T14:54:01;5.97;;;2.97;;
18973;SDS011;9621;48.690;9.466;2023-04-30T14:56:28;3.53;;;2.97;;
18973;SDS011;9621;48.690;9.466;2023-04-30T14:58:55;3.65;;;2.95;;
18973;SDS011;9621;48.690;9.466;2023-04-30T15:01:22;3.03;;;2.58;;
18973;SDS011;9621;48.690;9.466;2023-04-30T15:03:49;3.97;;;2.92;;
18973;SDS011;9621;48.690;9.466;2023-04-30T15:06:18;3.33;;;2.70;;
18973;SDS011;9621;48.690;9.466;2023-04-30T15:08:45;3.08;;;2.78;;
18973;SDS011;9621;48.690;9.466;2023-04-30T15:11:12;3.00;;;2.65;;
18973;SDS011;9621;48.690;9.466;2023-04-30T15:13:39;2.97;;;2.63;;